Time;durP1;ratioP1;P1;durP2;ratioP2;P2;SDS_P1;SDS_P2;PMS_P1;PMS_P2;Temp;Humidity;BMP_temperature;BMP_pressure;BME280_temperature;BME280_humidity;BME280_pressure;Samples;Min_cycle;Max_cycle;Signal;HPM_P1;HPM_P2
2022/03/31 00:00:49;;;;;;;16.08;9.57;;;;;;;1.95;92.54;100366.28;2071149;28;45504;-63
2022/03/31 00:01:50;;;;;;;10.77;8.27;;;;;;;1.96;93.19;100357.50;2070620;28;46662;-63
2022/03/31 00:02:52;;;;;;;16.02;9.82;;;;;;;1.96;92.99;100362.75;2070442;28;33781;-63
2022/03/31 00:03:54;;;;;;;16.77;10.75;;;;;;;1.94;93.36;100361.84;2071435;28;20034;-63
2022/03/31 00:04:56;;;;;;;12.10;9.82;;;;;;;1.91;92.83;100363.63;2070498;28;43695;-63
2022/03/31 00:05:57;;;;;;;17.08;10.57;;;;;;;1.90;93.17;100360.97;2072064;28;20046;-63
2022/03/31 00:07:00;;;;;;;14.02;11.10;;;;;;;1.90;93.05;100359.22;2070549;28;44011;-63
2022/03/31 00:08:15;;;;;;;14.65;10.73;;;;;;;1.86;92.80;100362.72;2070116;28;42108;-63
2022/03/31 00:09:16;;;;;;;14.73;10.82;;;;;;;1.85;93.40;100354.81;2070793;28;45399;-63
2022/03/31 00:10:32;;;;;;;15.52;11.30;;;;;;;1.88;93.35;100352.16;2070604;28;45745;-63
2022/03/31 00:11:34;;;;;;;21.02;11.27;;;;;;;1.87;93.28;100353.94;2070502;28;45435;-62
2022/03/31 00:12:38;;;;;;;19.05;12.43;;;;;;;1.90;93.71;100353.03;2071532;28;20149;-64
2022/03/31 00:13:41;;;;;;;19.75;13.57;;;;;;;1.87;93.07;100353.94;2070507;28;44348;-63
2022/03/31 00:14:45;;;;;;;19.38;12.80;;;;;;;1.87;93.17;100353.06;2071946;28;44230;-63
2022/03/31 00:15:47;;;;;;;22.52;13.90;;;;;;;1.87;93.56;100353.94;2072042;28;32324;-63
2022/03/31 00:16:49;;;;;;;19.67;13.65;;;;;;;1.89;93.78;100351.31;2071987;28;43868;-63
2022/03/31 00:17:51;;;;;;;20.17;13.80;;;;;;;1.89;93.48;100352.16;2071102;28;46090;-63
2022/03/31 00:18:52;;;;;;;20.67;14.10;;;;;;;1.87;94.11;100348.66;2072147;28;43368;-64
2022/03/31 00:19:54;;;;;;;23.20;15.05;;;;;;;1.87;93.58;100346.00;2072156;28;37688;-63
2022/03/31 00:21:00;;;;;;;21.13;14.55;;;;;;;1.87;93.89;100337.22;2070906;28;45181;-64
2022/03/31 00:22:02;;;;;;;20.80;13.73;;;;;;;1.89;93.88;100346.88;2071588;28;43903;-63
2022/03/31 00:23:05;;;;;;;17.67;13.80;;;;;;;1.90;94.08;100339.84;2072243;28;20896;-63
2022/03/31 00:24:08;;;;;;;21.80;15.10;;;;;;;1.87;93.79;100342.50;2071296;28;44493;-63
2022/03/31 00:25:11;;;;;;;21.17;14.68;;;;;;;1.89;93.87;100340.75;2071949;28;39526;-63
2022/03/31 00:26:14;;;;;;;19.98;13.82;;;;;;;1.88;93.60;100344.25;2071183;28;43737;-63
2022/03/31 00:27:16;;;;;;;20.15;14.40;;;;;;;1.89;93.77;100346.88;2071433;28;43679;-63
2022/03/31 00:28:18;;;;;;;21.70;14.77;;;;;;;1.88;93.60;100349.53;2072087;28;20038;-63
2022/03/31 00:29:20;;;;;;;20.52;14.73;;;;;;;1.87;93.56;100343.38;2070849;28;38514;-63
2022/03/31 00:30:21;;;;;;;22.52;15.80;;;;;;;1.87;93.53;100348.66;2071315;28;44580;-63
2022/03/31 00:31:23;;;;;;;23.00;15.82;;;;;;;1.86;93.76;100341.59;2071663;28;44638;-63
2022/03/31 00:32:25;;;;;;;24.30;15.93;;;;;;;1.89;94.03;100331.06;2071637;28;43262;-63
2022/03/31 00:33:26;;;;;;;22.90;15.30;;;;;;;1.88;93.90;100337.22;2071490;28;44262;-63
2022/03/31 00:34:30;;;;;;;25.27;16.40;;;;;;;1.88;94.12;100339.88;2071871;28;44723;-63
2022/03/31 00:35:32;;;;;;;25.05;16.83;;;;;;;1.88;93.77;100338.97;2071645;28;43909;-63
2022/03/31 00:36:33;;;;;;;25.00;17.98;;;;;;;1.89;93.89;100336.34;2070633;28;46950;-63
2022/03/31 00:37:38;;;;;;;24.52;16.92;;;;;;;1.88;94.48;100334.59;2072674;28;20093;-63
2022/03/31 00:39:28;;;;;;;22.38;16.30;;;;;;;1.89;94.39;100332.81;2071709;28;44045;-63
2022/03/31 00:40:02;;;;;;;23.05;15.75;;;;;;;1.88;94.21;100334.59;2072730;28;25714;-63
2022/03/31 00:41:04;;;;;;;28.05;17.48;;;;;;;1.88;94.16;100324.03;2071328;28;43764;-63
2022/03/31 00:42:06;;;;;;;24.02;16.90;;;;;;;1.90;94.04;100326.66;2071455;28;46827;-63
2022/03/31 00:43:08;;;;;;;22.80;15.32;;;;;;;1.90;94.46;100327.56;2071391;28;44101;-63
2022/03/31 00:44:10;;;;;;;23.42;15.85;;;;;;;1.91;94.16;100323.16;2071742;28;43549;-63
2022/03/31 00:45:27;;;;;;;25.27;16.90;;;;;;;1.91;94.55;100325.78;2071757;28;44285;-63
2022/03/31 00:46:28;;;;;;;23.02;16.85;;;;;;;1.89;94.40;100320.50;2071369;28;43735;-63
2022/03/31 00:47:34;;;;;;;26.48;17.45;;;;;;;1.88;94.55;100323.13;2071027;28;45893;-63
2022/03/31 00:48:38;;;;;;;22.35;14.85;;;;;;;1.89;95.21;100323.13;2072170;28;43718;-63
2022/03/31 00:49:40;;;;;;;25.60;17.55;;;;;;;1.88;94.43;100313.47;2071426;28;44276;-63
2022/03/31 00:50:42;;;;;;;25.60;17.77;;;;;;;1.90;94.58;100321.38;2071716;28;43435;-61
2022/03/31 00:51:44;;;;;;;27.50;18.35;;;;;;;1.91;94.81;100317.88;2071709;28;43293;-63
2022/03/31 00:52:45;;;;;;;25.17;18.05;;;;;;;1.91;95.68;100318.72;2072072;28;37600;-63
2022/03/31 00:53:47;;;;;;;23.15;17.02;;;;;;;1.89;94.61;100316.97;2071542;28;45797;-63
2022/03/31 00:54:49;;;;;;;29.00;18.20;;;;;;;1.88;95.21;100317.84;2072611;28;20082;-63
2022/03/31 00:55:52;;;;;;;25.42;17.27;;;;;;;1.88;94.57;100323.13;2070550;28;46322;-63
2022/03/31 00:56:59;;;;;;;26.90;17.75;;;;;;;1.87;94.79;100316.97;2070606;28;42186;-63
2022/03/31 00:58:01;;;;;;;28.50;17.70;;;;;;;1.86;94.44;100320.47;2062840;28;45729;-62
2022/03/31 00:59:06;;;;;;;24.05;16.42;;;;;;;1.83;94.86;100320.50;2063702;28;44276;-63
2022/03/31 01:00:10;;;;;;;24.27;16.77;;;;;;;1.90;94.89;100321.38;2071080;28;35410;-64
2022/03/31 01:01:13;;;;;;;24.98;16.75;;;;;;;1.89;94.83;100320.50;2070691;28;47578;-63
2022/03/31 01:02:15;;;;;;;25.42;16.75;;;;;;;1.88;95.04;100315.22;2070491;28;44568;-63
2022/03/31 01:03:17;;;;;;;23.95;16.77;;;;;;;1.88;95.23;100316.13;2070793;28;45451;-63
2022/03/31 01:04:19;;;;;;;24.05;16.92;;;;;;;1.89;94.71;100309.06;2071824;28;43201;-64
2022/03/31 01:05:21;;;;;;;27.40;18.10;;;;;;;1.92;95.38;100314.34;2071614;28;45547;-63
2022/03/31 01:06:22;;;;;;;24.95;17.77;;;;;;;1.92;94.97;100311.72;2071211;28;45049;-64
2022/03/31 01:07:26;;;;;;;27.00;17.67;;;;;;;1.90;95.10;100310.81;2071868;28;42419;-64
2022/03/31 01:08:28;;;;;;;25.42;16.65;;;;;;;1.93;95.44;100316.09;2072028;28;45443;-64
2022/03/31 01:09:32;;;;;;;25.48;16.85;;;;;;;1.90;95.34;100310.81;2070936;28;41733;-61
2022/03/31 01:10:34;;;;;;;27.25;17.20;;;;;;;1.89;95.03;100311.69;2071816;28;20046;-61
2022/03/31 01:11:36;;;;;;;26.08;17.48;;;;;;;1.91;94.89;100312.59;2071218;28;45407;-61
2022/03/31 01:12:38;;;;;;;25.48;16.88;;;;;;;1.90;95.22;100311.72;2071053;28;45932;-64
2022/03/31 01:13:39;;;;;;;26.90;18.08;;;;;;;1.89;95.79;100314.34;2070689;28;44930;-64
2022/03/31 01:14:41;;;;;;;25.40;17.42;;;;;;;1.88;95.02;100316.13;2070675;28;39925;-62
2022/03/31 01:15:45;;;;;;;25.08;17.55;;;;;;;1.89;95.25;100309.94;2072320;28;20042;-64
2022/03/31 01:16:47;;;;;;;28.92;17.30;;;;;;;1.87;94.68;100306.41;2071169;28;44281;-64
2022/03/31 01:17:49;;;;;;;25.40;17.92;;;;;;;1.87;95.78;100306.41;2071671;28;43309;-61
2022/03/31 01:18:53;;;;;;;27.90;17.63;;;;;;;1.91;95.51;100308.19;2072392;28;20030;-61
2022/03/31 01:19:57;;;;;;;27.02;18.33;;;;;;;1.92;95.73;100298.53;2072206;28;20038;-64
2022/03/31 01:21:01;;;;;;;29.15;18.63;;;;;;;1.94;95.34;100303.78;2072125;28;21630;-64
2022/03/31 01:22:05;;;;;;;27.65;18.92;;;;;;;1.95;95.88;100302.91;2070729;28;45223;-62
2022/03/31 01:23:17;;;;;;;26.85;18.50;;;;;;;1.94;95.44;100301.13;2071092;28;45851;-64
2022/03/31 01:24:18;;;;;;;29.67;19.58;;;;;;;1.96;95.47;100299.41;2070695;28;43765;-64
2022/03/31 01:25:20;;;;;;;25.23;17.42;;;;;;;1.95;95.22;100306.41;2070351;28;46324;-61
2022/03/31 01:26:22;;;;;;;28.88;18.88;;;;;;;1.95;95.36;100300.28;2070458;28;44707;-61
2022/03/31 01:27:26;;;;;;;30.27;17.30;;;;;;;1.94;95.43;100293.22;2072167;28;20168;-63
2022/03/31 01:28:28;;;;;;;25.42;17.00;;;;;;;1.95;95.53;100298.50;2071437;28;45708;-62
2022/03/31 01:29:30;;;;;;;28.65;17.00;;;;;;;1.97;95.48;100293.22;2071156;28;44924;-62
2022/03/31 01:30:31;;;;;;;27.83;18.48;;;;;;;1.96;95.41;100295.00;2071132;28;45161;-61
2022/03/31 01:31:33;;;;;;;26.08;17.23;;;;;;;1.97;95.46;100290.59;2071332;28;43991;-62
2022/03/31 01:32:35;;;;;;;27.60;18.20;;;;;;;1.97;95.74;100291.47;2071231;28;43377;-62
2022/03/31 01:33:37;;;;;;;29.90;18.65;;;;;;;1.97;95.62;100285.31;2070854;28;44916;-62
2022/03/31 01:34:39;;;;;;;26.05;18.88;;;;;;;1.99;95.68;100288.81;2071307;28;35243;-62
2022/03/31 01:35:43;;;;;;;34.22;17.70;;;;;;;1.98;95.48;100284.44;2070195;28;44412;-61
2022/03/31 01:36:45;;;;;;;27.65;18.45;;;;;;;2.00;95.67;100290.59;2063272;28;44683;-62
2022/03/31 01:37:47;;;;;;;27.95;18.75;;;;;;;1.98;96.14;100289.72;2064010;28;20945;-62
2022/03/31 01:38:49;;;;;;;30.45;18.13;;;;;;;1.99;95.92;100278.28;2063400;28;44979;-62
2022/03/31 01:39:51;;;;;;;27.00;17.60;;;;;;;1.99;95.79;100281.81;2063477;28;44683;-62
2022/03/31 01:40:52;;;;;;;26.30;16.98;;;;;;;1.99;95.47;100288.81;2063264;28;45271;-62
2022/03/31 01:41:54;;;;;;;26.70;17.60;;;;;;;1.99;95.58;100283.56;2062612;28;45665;-62
2022/03/31 01:42:56;;;;;;;26.25;18.48;;;;;;;1.98;95.76;100277.41;2063432;28;45128;-62
2022/03/31 01:44:01;;;;;;;26.05;17.17;;;;;;;2.00;95.95;100278.28;2064128;28;20046;-61
2022/03/31 01:45:06;;;;;;;25.50;17.38;;;;;;;2.02;96.10;100279.16;2063595;28;35851;-62
2022/03/31 01:46:10;;;;;;;28.63;17.63;;;;;;;2.03;95.70;100277.41;2062933;28;44030;-63
2022/03/31 01:47:12;;;;;;;24.55;17.02;;;;;;;2.04;95.68;100276.53;2063076;28;45764;-64
2022/03/31 01:48:14;;;;;;;27.17;16.88;;;;;;;2.03;96.15;100272.13;2063446;28;44292;-62
2022/03/31 01:49:15;;;;;;;28.23;17.63;;;;;;;2.03;96.00;100269.50;2063410;28;45143;-63
2022/03/31 01:50:17;;;;;;;25.55;17.63;;;;;;;2.04;95.93;100266.84;2063083;28;43012;-62
2022/03/31 01:51:19;;;;;;;28.63;18.40;;;;;;;2.06;96.04;100264.19;2064208;28;20047;-62
2022/03/31 01:52:22;;;;;;;27.35;17.55;;;;;;;2.05;96.55;100267.72;2063148;28;39329;-62
2022/03/31 01:53:23;;;;;;;24.58;17.75;;;;;;;2.05;95.80;100265.97;2063937;28;45233;-62
2022/03/31 01:54:25;;;;;;;25.67;16.40;;;;;;;2.07;95.95;100256.28;2063222;28;45541;-62
2022/03/31 01:55:27;;;;;;;26.35;17.90;;;;;;;2.07;96.44;100264.19;2063549;28;40429;-63
2022/03/31 01:56:29;;;;;;;26.52;18.05;;;;;;;2.07;96.63;100266.84;2063167;28;45467;-62
2022/03/31 01:57:30;;;;;;;26.70;17.63;;;;;;;2.08;96.38;100265.06;2063121;28;46187;-62
2022/03/31 01:58:32;;;;;;;22.98;16.92;;;;;;;2.07;95.91;100266.84;2062769;28;43411;-62
2022/03/31 01:59:40;;;;;;;23.70;17.85;;;;;;;2.07;95.79;100263.34;2063415;28;44289;-62
2022/03/31 02:00:42;;;;;;;28.40;17.85;;;;;;;2.07;96.23;100258.91;2062641;28;44629;-63
2022/03/31 02:01:44;;;;;;;25.77;17.77;;;;;;;2.08;96.21;100259.78;2063154;28;44007;-62
2022/03/31 02:02:46;;;;;;;25.45;17.02;;;;;;;2.08;95.99;100258.06;2062864;28;45254;-62
2022/03/31 02:03:47;;;;;;;25.23;17.23;;;;;;;2.09;96.34;100258.94;2063046;28;44581;-63
2022/03/31 02:04:49;;;;;;;25.02;18.15;;;;;;;2.09;96.04;100253.66;2062592;28;44362;-62
2022/03/31 02:05:51;;;;;;;25.42;17.52;;;;;;;2.12;95.96;100258.03;2063424;28;46749;-64
2022/03/31 02:06:53;;;;;;;28.73;17.95;;;;;;;2.09;95.75;100251.88;2070529;28;43899;-64
2022/03/31 02:07:56;;;;;;;27.17;17.58;;;;;;;2.11;96.51;100254.53;2070082;28;44930;-64
2022/03/31 02:08:58;;;;;;;24.30;17.85;;;;;;;2.11;96.48;100246.59;2070461;28;44214;-64
2022/03/31 02:10:00;;;;;;;26.40;17.60;;;;;;;2.13;95.79;100243.97;2070988;28;34891;-63
2022/03/31 02:11:05;;;;;;;25.05;17.70;;;;;;;2.14;95.74;100253.66;2071772;28;20049;-64
2022/03/31 02:12:07;;;;;;;27.23;17.55;;;;;;;2.12;96.11;100253.66;2070597;28;43875;-64
2022/03/31 02:13:09;;;;;;;27.40;18.17;;;;;;;2.12;96.52;100253.66;2070230;28;44209;-64
2022/03/31 02:14:11;;;;;;;25.92;17.77;;;;;;;2.12;95.79;100243.09;2063033;28;23843;-64
2022/03/31 02:15:13;;;;;;;23.02;17.05;;;;;;;2.12;96.09;100248.38;2062104;28;44251;-64
2022/03/31 02:16:14;;;;;;;27.77;17.90;;;;;;;2.13;96.52;100243.97;2071005;28;45123;-64
2022/03/31 02:17:17;;;;;;;25.52;17.38;;;;;;;2.14;96.58;100238.69;2070671;28;43316;-64
2022/03/31 02:18:18;;;;;;;25.80;18.45;;;;;;;2.17;96.67;100246.63;2071199;28;45311;-62
2022/03/31 02:19:21;;;;;;;27.65;18.23;;;;;;;2.18;96.52;100248.38;2070881;28;43913;-64
2022/03/31 02:20:26;;;;;;;26.05;18.35;;;;;;;2.17;96.72;100237.78;2071095;28;42743;-64
2022/03/31 02:21:29;;;;;;;27.80;18.50;;;;;;;2.19;96.48;100243.94;2070752;28;46528;-64
2022/03/31 02:22:30;;;;;;;31.42;20.42;;;;;;;2.18;96.47;100243.09;2071116;28;44782;-64
2022/03/31 02:23:32;;;;;;;27.45;18.33;;;;;;;2.18;96.97;100243.09;2071019;28;44240;-64
2022/03/31 02:24:35;;;;;;;28.55;19.33;;;;;;;2.19;96.44;100242.22;2071288;28;43966;-63
2022/03/31 02:25:37;;;;;;;28.02;18.98;;;;;;;2.20;96.21;100241.31;2071248;28;35917;-64
2022/03/31 02:26:38;;;;;;;25.85;18.00;;;;;;;2.20;96.32;100243.97;2071816;28;20046;-64
2022/03/31 02:27:40;;;;;;;28.38;18.58;;;;;;;2.21;96.55;100235.16;2071416;28;44689;-63
2022/03/31 02:28:44;;;;;;;29.73;18.33;;;;;;;2.22;96.20;100231.63;2071110;28;44145;-63
2022/03/31 02:29:45;;;;;;;27.15;19.10;;;;;;;2.24;96.38;100232.53;2069828;28;44660;-63
2022/03/31 02:30:47;;;;;;;25.25;17.65;;;;;;;2.24;96.39;100232.53;2070659;28;45198;-64
2022/03/31 02:31:49;;;;;;;26.33;17.98;;;;;;;2.24;96.63;100232.53;2070761;28;45684;-64
2022/03/31 02:32:51;;;;;;;29.35;19.80;;;;;;;2.28;96.81;100233.41;2071097;28;44607;-63
2022/03/31 02:33:53;;;;;;;28.00;18.27;;;;;;;2.27;96.28;100227.22;2071101;28;45799;-64
2022/03/31 02:34:56;;;;;;;26.67;18.77;;;;;;;2.29;96.58;100230.75;2071339;28;44849;-63
2022/03/31 02:35:57;;;;;;;30.05;20.77;;;;;;;2.28;96.64;100230.78;2071050;28;43388;-63
2022/03/31 02:37:00;;;;;;;32.25;20.00;;;;;;;2.31;97.01;100227.22;2071512;28;27553;-64
2022/03/31 02:38:01;;;;;;;29.42;19.67;;;;;;;2.31;96.87;100228.09;2070604;28;44369;-64
2022/03/31 02:39:03;;;;;;;32.15;20.60;;;;;;;2.32;96.51;100223.72;2071068;28;22657;-64
2022/03/31 02:40:06;;;;;;;33.55;22.10;;;;;;;2.33;96.62;100228.97;2070908;28;45978;-64
2022/03/31 02:41:08;;;;;;;32.63;21.95;;;;;;;2.34;95.98;100227.25;2070171;28;43006;-64
2022/03/31 02:42:09;;;;;;;30.00;20.75;;;;;;;2.34;96.43;100229.88;2070594;28;43898;-64
2022/03/31 02:43:12;;;;;;;29.88;21.05;;;;;;;2.35;96.02;100231.63;2070889;28;43365;-64
2022/03/31 02:44:16;;;;;;;32.13;22.13;;;;;;;2.36;96.54;100233.41;2071054;28;43936;-64
2022/03/31 02:45:19;;;;;;;31.83;21.88;;;;;;;2.34;95.93;100233.41;2071012;28;46298;-64
2022/03/31 02:46:21;;;;;;;34.53;22.20;;;;;;;2.35;95.78;100226.34;2070845;28;31393;-62
2022/03/31 02:47:26;;;;;;;29.15;21.10;;;;;;;2.35;96.21;100224.59;2071275;28;45421;-64
2022/03/31 02:48:28;;;;;;;28.77;20.48;;;;;;;2.34;96.19;100228.09;2070990;28;44184;-64
2022/03/31 02:49:30;;;;;;;28.27;19.92;;;;;;;2.33;95.40;100220.19;2071117;28;43767;-64
2022/03/31 02:50:32;;;;;;;25.60;19.00;;;;;;;2.32;95.61;100224.59;2070499;28;46355;-64
2022/03/31 02:51:33;;;;;;;30.27;18.65;;;;;;;2.28;94.88;100218.44;2071424;28;44840;-64
2022/03/31 02:55:25;;;;;;;;;;;;;;;2.29;94.86;100219.31;2071553;28;43901;-64
2022/03/31 02:56:26;;;;;;;23.85;17.63;;;;;;;2.30;93.97;100221.09;2070517;28;47687;-65
2022/03/31 02:57:28;;;;;;;26.35;17.95;;;;;;;2.27;93.70;100221.06;2070964;28;43378;-64
2022/03/31 02:58:30;;;;;;;27.95;18.00;;;;;;;2.26;93.60;100212.28;2071017;28;43225;-62
2022/03/31 02:59:31;;;;;;;22.33;18.13;;;;;;;2.28;93.67;100220.22;2071165;28;37066;-64
2022/03/31 03:00:37;;;;;;;26.27;18.77;;;;;;;2.29;93.43;100216.66;2071389;28;38860;-64
2022/03/31 03:01:39;;;;;;;27.42;18.77;;;;;;;2.29;94.17;100211.38;2070535;28;43471;-64
2022/03/31 03:02:41;;;;;;;27.02;19.40;;;;;;;2.30;93.89;100218.44;2070212;28;45101;-64
2022/03/31 03:03:43;;;;;;;27.98;19.35;;;;;;;2.29;93.44;100209.63;2070383;28;43742;-64
2022/03/31 03:04:45;;;;;;;26.67;19.38;;;;;;;2.30;93.87;100210.50;2070132;28;46414;-64
2022/03/31 03:05:48;;;;;;;30.10;19.92;;;;;;;2.29;94.39;100214.91;2070392;28;44378;-63
2022/03/31 03:06:50;;;;;;;26.55;19.27;;;;;;;2.29;94.14;100211.38;2070686;28;45272;-64
2022/03/31 03:07:52;;;;;;;24.63;18.38;;;;;;;2.28;94.28;100213.16;2071054;28;31639;-64
2022/03/31 03:08:57;;;;;;;25.80;18.17;;;;;;;2.26;94.45;100212.28;2070999;28;44112;-64
2022/03/31 03:09:59;;;;;;;26.85;17.58;;;;;;;2.26;93.48;100203.44;2071072;28;44028;-63
2022/03/31 03:11:01;;;;;;;27.60;18.33;;;;;;;2.27;94.30;100216.66;2071120;28;27728;-64
2022/03/31 03:12:05;;;;;;;25.55;17.83;;;;;;;2.28;93.81;100214.94;2070687;28;45590;-64
2022/03/31 03:13:08;;;;;;;23.40;16.48;;;;;;;2.26;93.98;100208.72;2070781;28;44833;-64
2022/03/31 03:14:13;;;;;;;21.23;16.05;;;;;;;2.23;93.73;100212.28;2071940;28;20037;-64
2022/03/31 03:15:16;;;;;;;23.05;15.13;;;;;;;2.22;93.58;100213.13;2070858;28;44943;-64
2022/03/31 03:16:21;;;;;;;23.75;16.80;;;;;;;2.21;94.27;100206.13;2071379;28;44660;-64
2022/03/31 03:17:23;;;;;;;22.15;15.68;;;;;;;2.20;94.15;100208.75;2069665;28;47034;-64
2022/03/31 03:18:24;;;;;;;23.27;15.15;;;;;;;2.20;94.18;100196.41;2062269;28;43728;-63
2022/03/31 03:19:28;;;;;;;21.05;14.93;;;;;;;2.17;94.08;100206.09;2061722;28;44178;-64
2022/03/31 03:20:30;;;;;;;21.20;15.13;;;;;;;2.18;94.61;100205.25;2070796;28;46636;-64
2022/03/31 03:21:37;;;;;;;20.00;14.07;;;;;;;2.15;93.69;100200.81;2070473;28;20140;-64
2022/03/31 03:22:48;;;;;;;20.10;14.25;;;;;;;2.14;93.91;100203.50;2070821;28;45624;-64
2022/03/31 03:23:50;;;;;;;19.23;13.50;;;;;;;2.12;93.96;100211.41;2070513;28;44882;-63
2022/03/31 03:24:52;;;;;;;18.00;13.65;;;;;;;2.12;93.95;100210.50;2070389;28;44907;-63
2022/03/31 03:25:54;;;;;;;18.77;13.50;;;;;;;2.10;94.39;100206.13;2070319;28;41971;-64
2022/03/31 03:26:55;;;;;;;19.38;14.45;;;;;;;2.09;94.04;100204.34;2070684;28;44303;-63
2022/03/31 03:27:59;;;;;;;18.65;12.98;;;;;;;2.11;93.85;100209.63;2070120;28;29793;-63
2022/03/31 03:29:01;;;;;;;21.60;13.43;;;;;;;2.09;93.72;100206.13;2070045;28;44774;-63
2022/03/31 03:30:03;;;;;;;19.73;13.38;;;;;;;2.09;94.29;100211.41;2070381;28;44335;-63
2022/03/31 03:31:07;;;;;;;18.40;12.30;;;;;;;2.08;93.89;100201.69;2070682;28;44015;-63
2022/03/31 03:32:08;;;;;;;19.33;11.90;;;;;;;2.08;93.84;100199.06;2069708;28;45736;-63
2022/03/31 03:33:10;;;;;;;18.02;11.77;;;;;;;2.07;94.42;100207.88;2070102;28;45159;-63
2022/03/31 03:34:13;;;;;;;15.85;11.82;;;;;;;2.05;93.82;100196.44;2069480;28;45126;-63
2022/03/31 03:35:17;;;;;;;19.70;11.55;;;;;;;2.05;93.92;100204.38;2070999;28;43000;-64
2022/03/31 03:36:19;;;;;;;19.08;11.85;;;;;;;2.05;93.84;100207.00;2070685;28;45297;-64
2022/03/31 03:37:21;;;;;;;20.20;11.63;;;;;;;2.03;93.13;100196.44;2070918;28;45982;-63
2022/03/31 03:38:23;;;;;;;20.33;11.25;;;;;;;2.02;93.22;100209.63;2070530;28;45146;-64
2022/03/31 03:39:24;;;;;;;16.00;11.57;;;;;;;2.01;93.22;100202.59;2071659;28;22674;-63
2022/03/31 03:40:26;;;;;;;19.45;12.18;;;;;;;2.02;93.58;100204.34;2070450;28;43340;-64
2022/03/31 03:41:28;;;;;;;21.33;11.82;;;;;;;1.98;92.94;100207.88;2069829;28;44273;-64
2022/03/31 03:42:30;;;;;;;18.65;10.85;;;;;;;1.98;93.13;100205.25;2070870;28;36880;-63
2022/03/31 03:43:32;;;;;;;18.60;10.52;;;;;;;1.96;93.51;100207.00;2070494;28;45098;-63
2022/03/31 03:44:35;;;;;;;15.57;10.43;;;;;;;1.99;93.11;100209.63;2070383;28;46341;-64
2022/03/31 03:45:38;;;;;;;16.48;10.27;;;;;;;1.95;93.71;100199.97;2070400;28;44292;-64
2022/03/31 03:46:40;;;;;;;14.05;10.68;;;;;;;1.96;93.52;100202.59;2071245;28;20053;-64
2022/03/31 03:47:42;;;;;;;17.85;9.88;;;;;;;1.96;93.37;100207.88;2070344;28;46485;-64
2022/03/31 03:48:44;;;;;;;15.00;9.35;;;;;;;1.94;93.44;100204.38;2071383;28;21222;-63
2022/03/31 03:49:46;;;;;;;18.35;9.45;;;;;;;1.95;93.76;100203.47;2072039;28;45179;-63
2022/03/31 03:50:48;;;;;;;15.65;10.05;;;;;;;1.95;93.74;100194.69;2071536;28;45554;-63
2022/03/31 03:51:50;;;;;;;17.10;9.93;;;;;;;1.94;93.66;100203.47;2072446;28;45274;-64
2022/03/31 03:52:52;;;;;;;15.95;8.98;;;;;;;1.91;93.72;100202.59;2072141;28;46523;-65
2022/03/31 03:53:54;;;;;;;13.57;8.82;;;;;;;1.90;93.64;100205.22;2063787;28;35048;-65
2022/03/31 03:54:56;;;;;;;11.75;7.85;;;;;;;1.88;93.33;100202.59;2063177;28;45327;-65
2022/03/31 03:55:57;;;;;;;14.65;8.23;;;;;;;1.89;93.34;100198.19;2071941;28;45695;-65
2022/03/31 03:56:59;;;;;;;15.23;8.48;;;;;;;1.88;93.73;100194.69;2071245;28;44018;-65
2022/03/31 03:58:03;;;;;;;14.20;8.68;;;;;;;1.89;93.85;100187.66;2071647;28;43918;-64
2022/03/31 03:59:04;;;;;;;13.95;8.90;;;;;;;1.88;93.68;100191.16;2071559;28;42320;-64
2022/03/31 04:00:09;;;;;;;12.70;8.55;;;;;;;1.88;93.96;100197.34;2072376;28;31733;-65
2022/03/31 04:01:11;;;;;;;14.90;8.93;;;;;;;1.88;93.93;100191.16;2063079;28;45782;-63
2022/03/31 04:02:13;;;;;;;13.90;9.50;;;;;;;1.88;93.80;100192.06;2063376;28;43046;-62
2022/03/31 04:03:15;;;;;;;16.77;9.57;;;;;;;1.88;94.50;100194.69;2071919;28;45440;-65
2022/03/31 04:04:16;;;;;;;16.05;10.90;;;;;;;1.87;94.83;100195.56;2072435;28;44893;-63
2022/03/31 04:05:22;;;;;;;19.48;11.45;;;;;;;1.89;94.72;100188.50;2071467;28;31596;-62
2022/03/31 04:06:23;;;;;;;17.10;11.02;;;;;;;1.89;95.64;100193.78;2071676;28;45644;-62
2022/03/31 04:07:25;;;;;;;19.50;10.93;;;;;;;1.89;95.28;100192.91;2073442;28;20035;-64
2022/03/31 04:08:27;;;;;;;18.52;10.50;;;;;;;1.87;95.28;100190.28;2071371;28;44254;-62
2022/03/31 04:09:29;;;;;;;15.50;10.15;;;;;;;1.86;94.71;100198.19;2070954;28;45983;-62
2022/03/31 04:10:34;;;;;;;16.52;10.20;;;;;;;1.83;94.34;100190.25;2071678;28;45270;-61
2022/03/31 04:11:35;;;;;;;14.57;8.90;;;;;;;1.80;93.75;100188.50;2071998;28;36144;-62
2022/03/31 04:12:39;;;;;;;14.77;8.63;;;;;;;1.79;93.91;100199.94;2073478;28;20089;-62
2022/03/31 04:13:42;;;;;;;14.70;8.32;;;;;;;1.76;93.80;100197.31;2070864;28;46723;-65
2022/03/31 04:14:44;;;;;;;11.90;8.15;;;;;;;1.71;93.81;100184.09;2071594;28;44563;-63
2022/03/31 04:15:46;;;;;;;13.43;8.02;;;;;;;1.70;93.38;100197.28;2071714;28;45444;-62
2022/03/31 04:16:48;;;;;;;12.27;7.72;;;;;;;1.67;93.73;100200.81;2071898;28;45382;-62
2022/03/31 04:17:50;;;;;;;10.45;7.55;;;;;;;1.66;93.63;100191.13;2072103;28;43217;-63
2022/03/31 04:18:52;;;;;;;11.88;7.85;;;;;;;1.64;93.35;100186.75;2072132;28;45100;-64
2022/03/31 04:19:53;;;;;;;12.10;8.25;;;;;;;1.63;94.25;100184.97;2071584;28;30598;-64
2022/03/31 04:20:55;;;;;;;11.73;8.45;;;;;;;1.63;94.50;100187.59;2071651;28;40356;-64
2022/03/31 04:21:57;;;;;;;15.18;9.52;;;;;;;1.63;94.49;100191.13;2071607;28;46384;-65
2022/03/31 04:22:59;;;;;;;11.75;8.02;;;;;;;1.61;94.55;100195.50;2073293;28;20116;-64
2022/03/31 04:24:02;;;;;;;13.13;8.82;;;;;;;1.60;94.25;100190.22;2070940;28;46739;-64
2022/03/31 04:25:10;;;;;;;14.10;9.32;;;;;;;1.59;94.60;100189.38;2071717;28;46063;-65
2022/03/31 04:26:12;;;;;;;11.75;9.23;;;;;;;1.59;95.07;100192.00;2071798;28;39325;-65
2022/03/31 04:27:14;;;;;;;14.30;9.45;;;;;;;1.59;94.91;100189.38;2071699;28;46344;-64
2022/03/31 04:28:15;;;;;;;13.55;9.23;;;;;;;1.60;95.11;100196.41;2071774;28;44305;-65
2022/03/31 04:29:17;;;;;;;13.73;8.77;;;;;;;1.58;95.24;100190.25;2072267;28;45562;-64
2022/03/31 04:30:21;;;;;;;11.27;8.55;;;;;;;1.55;94.54;100192.88;2071496;28;45146;-64
2022/03/31 04:31:23;;;;;;;12.07;8.38;;;;;;;1.53;95.19;100190.25;2071674;28;44370;-65
2022/03/31 04:32:28;;;;;;;12.88;9.45;;;;;;;1.53;94.95;100189.38;2071204;28;45664;-64
2022/03/31 04:33:30;;;;;;;13.43;8.88;;;;;;;1.53;95.38;100189.38;2072347;28;37241;-65
2022/03/31 04:34:32;;;;;;;11.10;9.35;;;;;;;1.50;95.29;100195.50;2071803;28;42867;-65
2022/03/31 04:35:36;;;;;;;11.15;8.68;;;;;;;1.49;95.34;100193.75;2071753;28;46589;-65
2022/03/31 04:36:37;;;;;;;14.60;9.52;;;;;;;1.50;95.45;100189.34;2063356;28;42130;-64
2022/03/31 04:37:39;;;;;;;16.75;9.68;;;;;;;1.49;95.80;100188.47;2055205;28;42757;-64
2022/03/31 04:38:46;;;;;;;13.50;10.30;;;;;;;1.49;95.41;100195.50;2055042;28;47108;-65
2022/03/31 04:39:47;;;;;;;11.52;9.68;;;;;;;1.48;95.78;100196.38;2063626;28;45234;-65
2022/03/31 04:40:49;;;;;;;18.63;11.88;;;;;;;1.44;95.53;100189.34;2063197;28;47381;-65
2022/03/31 04:41:51;;;;;;;13.48;10.27;;;;;;;1.45;95.55;100193.72;2063548;28;43426;-65
2022/03/31 04:42:53;;;;;;;13.63;10.23;;;;;;;1.46;95.77;100190.22;2063987;28;21194;-64
2022/03/31 04:43:55;;;;;;;16.15;10.98;;;;;;;1.45;95.76;100197.25;2063756;28;44871;-65
2022/03/31 04:44:57;;;;;;;12.48;9.57;;;;;;;1.42;95.74;100202.53;2063806;28;44128;-64
2022/03/31 04:45:59;;;;;;;14.88;10.48;;;;;;;1.39;95.55;100199.88;2063415;28;42162;-64
2022/03/31 04:47:00;;;;;;;15.45;10.60;;;;;;;1.37;95.36;100192.84;2069502;28;43188;-64
2022/03/31 04:48:02;;;;;;;17.33;11.82;;;;;;;1.36;95.38;100191.94;2071387;28;44284;-64
2022/03/31 04:49:05;;;;;;;16.70;10.80;;;;;;;1.37;95.48;100193.72;2071679;28;45836;-65
2022/03/31 04:50:07;;;;;;;14.05;9.00;;;;;;;1.31;95.43;100196.31;2072640;28;20232;-64
2022/03/31 04:51:08;;;;;;;11.32;8.73;;;;;;;1.29;96.02;100201.63;2071334;28;45367;-64
2022/03/31 04:52:11;;;;;;;11.02;8.00;;;;;;;1.25;95.54;100196.31;2072784;28;25687;-65